Craig G — WDB5332 — position and weather

sailwx.info

Track history (hours):
 
Tides and Currents Weather Stations Pressure Air Temp Water Temp Dewpoint Dewpoint Depression Visibility Wind Speed Wind Dir Waves Ship Positions

Craig G

Owner: San Diego Towing & Marine Services,Inc., San Diego, CA. More information available from US FCC via Universal Licensing System and Coast Guard Vessel Documentation Center.

Last reported at 2014-Oct-24 15:33 UTC. Time now 2014-Oct-24 16:18 UTC.
Position N 33°14' W 117°34'.

Length 28 m; draft 2 m.

Type: Other ship. MMSI: 366908460.

Date/timePositionNaut miles runAvg speedWind from/ knotsBaromVisibWave heightAir tempDewpointWater temp
2014-Oct-24 15:33N 33°14' W 117°34'9 8.6
2014-Oct-24 14:33N 33°12' W 117°24'1413.8
2014-Oct-24 13:33N 33°13' W 117°40'7 7.3
2014-Oct-24 12:33N 33°13' W 117°32'3 3.3
2014-Oct-24 11:33N 33°14' W 117°28'4 3.7
2014-Oct-24 10:33N 33°12' W 117°24'0 0.4
2014-Oct-24 09:34N 33°13' W 117°24'0 0.0
2014-Oct-24 08:34N 33°13' W 117°24'0 0.0
2014-Oct-24 07:33N 33°13' W 117°24'0 0.0
2014-Oct-24 06:34N 33°13' W 117°24'0 0.0
2014-Oct-24 05:34N 33°13' W 117°24'0 0.0
2014-Oct-24 04:34N 33°13' W 117°24'0 0.0
2014-Oct-24 03:34N 33°13' W 117°24'5 5.5
2014-Oct-24 02:33N 33°16' W 117°29'3 3.4
2014-Oct-24 01:33N 33°13' W 117°28'10 9.6
2014-Oct-24 00:33N 33°15' W 117°39'9 8.9
2014-Oct-23 23:34N 33°15' W 117°28'2 1.8
2014-Oct-23 22:34N 33°14' W 117°30'1 1.4
2014-Oct-23 21:34N 33°14' W 117°32'7 6.5
2014-Oct-23 20:33N 33°13' W 117°24'4 4.3
2014-Oct-23 19:34N 33°13' W 117°29'9 8.8
2014-Oct-23 18:33N 33°16' W 117°39'0 0.4
2014-Oct-23 17:33N 33°16' W 117°40'7 6.7
2014-Oct-23 16:33N 33°15' W 117°32'7 7.3
2014-Oct-23 15:33N 33°12' W 117°24'0 0.0
2014-Oct-23 14:33N 33°12' W 117°24'6 5.8
2014-Oct-23 13:33N 33°13' W 117°31'9 9.3
2014-Oct-23 12:33N 33°15' W 117°41'1515.1
2014-Oct-23 11:33N 33°12' W 117°24'0 0.4
2014-Oct-23 10:33N 33°13' W 117°24'0 0.0
2014-Oct-21 11:08N 33°13' W 117°24'0 0.0
2014-Oct-21 10:33N 33°13' W 117°24'0 0.0
2014-Oct-21 09:33N 33°13' W 117°24'0 0.0
2014-Oct-21 08:33N 33°13' W 117°24'0 0.0
2014-Oct-21 07:33N 33°13' W 117°24'0 0.0
2014-Oct-21 06:33N 33°13' W 117°24'0 0.0
2014-Oct-21 05:33N 33°13' W 117°24'0 0.0
2014-Oct-21 04:33N 33°13' W 117°24'0 0.0
2014-Oct-21 03:33N 33°13' W 117°24'0 0.0
2014-Oct-21 02:33N 33°13' W 117°24'6 5.7
2014-Oct-21 01:33N 33°16' W 117°30'6 5.8
2014-Oct-21 00:34N 33°13' W 117°24'6 6.4
2014-Oct-20 23:34N 33°14' W 117°31'2 1.7
2014-Oct-20 22:33N 33°14' W 117°33'8 8.5
2014-Oct-20 21:33N 33°12' W 117°24'6 6.0
2014-Oct-20 20:33N 33°13' W 117°31'6 5.7
2014-Oct-20 19:34N 33°14' W 117°38'1111.2
2014-Oct-20 18:33N 33°13' W 117°24'0 0.0
2014-Oct-20 17:33N 33°13' W 117°24'1 0.6
2014-Oct-20 16:33N 33°12' W 117°25'1414.5
2014-Oct-20 15:33N 33°14' W 117°42'2 1.9
2014-Oct-20 14:33N 33°15' W 117°40'1413.7
2014-Oct-20 13:33N 33°12' W 117°24'0 0.2
2014-Oct-20 12:33N 33°13' W 117°24'0 0.1
2014-Oct-20 11:33N 33°12' W 117°24'0 0.1
2014-Oct-20 10:33N 33°13' W 117°24'0 0.0
2014-Oct-20 09:33N 33°13' W 117°24'0 0.0
2014-Oct-20 08:33N 33°13' W 117°24'0 0.0
2014-Oct-20 07:33N 33°13' W 117°24'0 0.0
2014-Oct-20 06:34N 33°13' W 117°24'0 0.0
2014-Oct-20 05:33N 33°13' W 117°24'0 0.0
2014-Oct-20 04:33N 33°13' W 117°24'0 0.0
2014-Oct-20 03:33N 33°13' W 117°24'0 0.0
2014-Oct-20 02:34N 33°13' W 117°24'0 0.0
2014-Oct-20 01:33N 33°13' W 117°24'0 0.0
2014-Oct-20 00:33N 33°13' W 117°24'0 0.0
2014-Oct-19 23:33N 33°13' W 117°24'0 0.0
2014-Oct-19 22:33N 33°13' W 117°24'0 0.0
2014-Oct-19 21:33N 33°13' W 117°24'4 3.7
2014-Oct-19 20:33N 33°15' W 117°27'2 2.3
2014-Oct-19 19:34N 33°16' W 117°30'6 6.0
2014-Oct-19 18:34N 33°13' W 117°24'0 0.2
2014-Oct-19 17:33N 33°13' W 117°24'0 0.0
2014-Oct-19 16:34N 33°13' W 117°24'0 0.0
2014-Oct-19 15:33N 33°13' W 117°24'0 0.0
2014-Oct-19 14:33N 33°13' W 117°24'0 0.0
2014-Oct-19 13:34N 33°13' W 117°24'0 0.0
2014-Oct-19 12:33N 33°13' W 117°24'0 0.1
2014-Oct-19 11:33N 33°13' W 117°24'0 0.0
2014-Oct-19 10:33N 33°13' W 117°24'0 0.0
2014-Oct-19 09:34N 33°13' W 117°24'0 0.0
2014-Oct-19 08:34N 33°13' W 117°24'0 0.0
2014-Oct-19 07:33N 33°13' W 117°24'4 4.3
2014-Oct-19 06:33N 33°14' W 117°29'4 4.3
2014-Oct-19 05:33N 33°13' W 117°24'0 0.0
2014-Oct-19 04:33N 33°13' W 117°24'0 0.0
2014-Oct-19 03:33N 33°13' W 117°24'0 0.0
2014-Oct-19 02:33N 33°13' W 117°24'0 0.0
2014-Oct-19 01:33N 33°13' W 117°24'0 0.4
2014-Oct-19 00:33N 33°12' W 117°24'0 0.1
2014-Oct-18 23:33N 33°12' W 117°24'2 1.7
2014-Oct-18 22:33N 33°13' W 117°26'6 5.9
2014-Oct-18 21:33N 33°17' W 117°31'0 0.3
2014-Oct-18 20:33N 33°17' W 117°30'2 1.9
2014-Oct-18 19:33N 33°15' W 117°31'7 6.9
2014-Oct-18 18:33N 33°12' W 117°24'0 0.4
2014-Oct-18 17:33N 33°13' W 117°24'4 4.2
2014-Oct-18 16:33N 33°15' W 117°28'4 4.4
2014-Oct-18 15:33N 33°12' W 117°24'8 8.3
2014-Oct-18 14:33N 33°14' W 117°34'2 1.8
2014-Oct-18 13:33N 33°14' W 117°32'4 4.3
2014-Oct-18 12:33N 33°12' W 117°27'2 2.3
2014-Oct-18 11:33N 33°13' W 117°24'6 5.9
2014-Oct-18 10:33N 33°15' W 117°31'4715.8
2014-Oct-18 07:33N 33°46' W 118°13'0 0.0
2014-Oct-17 19:10N 33°46' W 118°13'0 0.8
2014-Oct-17 18:33N 33°46' W 118°13'0 0.5
2014-Oct-17 17:33N 33°46' W 118°13'0 0.0
2014-Oct-17 16:33N 33°46' W 118°13'0 0.0
2014-Oct-17 15:33N 33°46' W 118°13'  
Track history (hours):
 
Tides and Currents Weather Stations Pressure Air Temp Water Temp Dewpoint Dewpoint Depression Visibility Wind Speed Wind Dir Waves Ship Positions

Craig G

Owner: San Diego Towing & Marine Services,Inc., San Diego, CA. More information available from US FCC via Universal Licensing System and Coast Guard Vessel Documentation Center.

Last reported at 2014-Oct-24 15:33 UTC. Time now 2014-Oct-24 16:18 UTC.
Position N 33°14' W 117°34'.

Length 28 m; draft 2 m.

Type: Other ship. MMSI: 366908460.

Date/timePositionNaut miles runAvg speedWind from/ knotsBaromVisibWave heightAir tempDewpointWater temp
2014-Oct-24 15:33N 33°14' W 117°34'9 8.6
2014-Oct-24 14:33N 33°12' W 117°24'1413.8
2014-Oct-24 13:33N 33°13' W 117°40'7 7.3
2014-Oct-24 12:33N 33°13' W 117°32'3 3.3
2014-Oct-24 11:33N 33°14' W 117°28'4 3.7
2014-Oct-24 10:33N 33°12' W 117°24'0 0.4
2014-Oct-24 09:34N 33°13' W 117°24'0 0.0
2014-Oct-24 08:34N 33°13' W 117°24'0 0.0
2014-Oct-24 07:33N 33°13' W 117°24'0 0.0
2014-Oct-24 06:34N 33°13' W 117°24'0 0.0
2014-Oct-24 05:34N 33°13' W 117°24'0 0.0
2014-Oct-24 04:34N 33°13' W 117°24'0 0.0
2014-Oct-24 03:34N 33°13' W 117°24'5 5.5
2014-Oct-24 02:33N 33°16' W 117°29'3 3.4
2014-Oct-24 01:33N 33°13' W 117°28'10 9.6
2014-Oct-24 00:33N 33°15' W 117°39'9 8.9
2014-Oct-23 23:34N 33°15' W 117°28'2 1.8
2014-Oct-23 22:34N 33°14' W 117°30'1 1.4
2014-Oct-23 21:34N 33°14' W 117°32'7 6.5
2014-Oct-23 20:33N 33°13' W 117°24'4 4.3
2014-Oct-23 19:34N 33°13' W 117°29'9 8.8
2014-Oct-23 18:33N 33°16' W 117°39'0 0.4
2014-Oct-23 17:33N 33°16' W 117°40'7 6.7
2014-Oct-23 16:33N 33°15' W 117°32'7 7.3
2014-Oct-23 15:33N 33°12' W 117°24'0 0.0
2014-Oct-23 14:33N 33°12' W 117°24'6 5.8
2014-Oct-23 13:33N 33°13' W 117°31'9 9.3
2014-Oct-23 12:33N 33°15' W 117°41'1515.1
2014-Oct-23 11:33N 33°12' W 117°24'0 0.4
2014-Oct-23 10:33N 33°13' W 117°24'0 0.0
2014-Oct-21 11:08N 33°13' W 117°24'0 0.0
2014-Oct-21 10:33N 33°13' W 117°24'0 0.0
2014-Oct-21 09:33N 33°13' W 117°24'0 0.0
2014-Oct-21 08:33N 33°13' W 117°24'0 0.0
2014-Oct-21 07:33N 33°13' W 117°24'0 0.0
2014-Oct-21 06:33N 33°13' W 117°24'0 0.0
2014-Oct-21 05:33N 33°13' W 117°24'0 0.0
2014-Oct-21 04:33N 33°13' W 117°24'0 0.0
2014-Oct-21 03:33N 33°13' W 117°24'0 0.0
2014-Oct-21 02:33N 33°13' W 117°24'6 5.7
2014-Oct-21 01:33N 33°16' W 117°30'6 5.8
2014-Oct-21 00:34N 33°13' W 117°24'6 6.4
2014-Oct-20 23:34N 33°14' W 117°31'2 1.7
2014-Oct-20 22:33N 33°14' W 117°33'8 8.5
2014-Oct-20 21:33N 33°12' W 117°24'6 6.0
2014-Oct-20 20:33N 33°13' W 117°31'6 5.7
2014-Oct-20 19:34N 33°14' W 117°38'1111.2
2014-Oct-20 18:33N 33°13' W 117°24'0 0.0
2014-Oct-20 17:33N 33°13' W 117°24'1 0.6
2014-Oct-20 16:33N 33°12' W 117°25'1414.5
2014-Oct-20 15:33N 33°14' W 117°42'2 1.9
2014-Oct-20 14:33N 33°15' W 117°40'1413.7
2014-Oct-20 13:33N 33°12' W 117°24'0 0.2
2014-Oct-20 12:33N 33°13' W 117°24'0 0.1
2014-Oct-20 11:33N 33°12' W 117°24'0 0.1
2014-Oct-20 10:33N 33°13' W 117°24'0 0.0
2014-Oct-20 09:33N 33°13' W 117°24'0 0.0
2014-Oct-20 08:33N 33°13' W 117°24'0 0.0
2014-Oct-20 07:33N 33°13' W 117°24'0 0.0
2014-Oct-20 06:34N 33°13' W 117°24'0 0.0
2014-Oct-20 05:33N 33°13' W 117°24'0 0.0
2014-Oct-20 04:33N 33°13' W 117°24'0 0.0
2014-Oct-20 03:33N 33°13' W 117°24'0 0.0
2014-Oct-20 02:34N 33°13' W 117°24'0 0.0
2014-Oct-20 01:33N 33°13' W 117°24'0 0.0
2014-Oct-20 00:33N 33°13' W 117°24'0 0.0
2014-Oct-19 23:33N 33°13' W 117°24'0 0.0
2014-Oct-19 22:33N 33°13' W 117°24'0 0.0
2014-Oct-19 21:33N 33°13' W 117°24'4 3.7
2014-Oct-19 20:33N 33°15' W 117°27'2 2.3
2014-Oct-19 19:34N 33°16' W 117°30'6 6.0
2014-Oct-19 18:34N 33°13' W 117°24'0 0.2
2014-Oct-19 17:33N 33°13' W 117°24'0 0.0
2014-Oct-19 16:34N 33°13' W 117°24'0 0.0
2014-Oct-19 15:33N 33°13' W 117°24'0 0.0
2014-Oct-19 14:33N 33°13' W 117°24'0 0.0
2014-Oct-19 13:34N 33°13' W 117°24'0 0.0
2014-Oct-19 12:33N 33°13' W 117°24'0 0.1
2014-Oct-19 11:33N 33°13' W 117°24'0 0.0
2014-Oct-19 10:33N 33°13' W 117°24'0 0.0
2014-Oct-19 09:34N 33°13' W 117°24'0 0.0
2014-Oct-19 08:34N 33°13' W 117°24'0 0.0
2014-Oct-19 07:33N 33°13' W 117°24'4 4.3
2014-Oct-19 06:33N 33°14' W 117°29'4 4.3
2014-Oct-19 05:33N 33°13' W 117°24'0 0.0
2014-Oct-19 04:33N 33°13' W 117°24'0 0.0
2014-Oct-19 03:33N 33°13' W 117°24'0 0.0
2014-Oct-19 02:33N 33°13' W 117°24'0 0.0
2014-Oct-19 01:33N 33°13' W 117°24'0 0.4
2014-Oct-19 00:33N 33°12' W 117°24'0 0.1
2014-Oct-18 23:33N 33°12' W 117°24'2 1.7
2014-Oct-18 22:33N 33°13' W 117°26'6 5.9
2014-Oct-18 21:33N 33°17' W 117°31'0 0.3
2014-Oct-18 20:33N 33°17' W 117°30'2 1.9
2014-Oct-18 19:33N 33°15' W 117°31'7 6.9
2014-Oct-18 18:33N 33°12' W 117°24'0 0.4
2014-Oct-18 17:33N 33°13' W 117°24'4 4.2
2014-Oct-18 16:33N 33°15' W 117°28'4 4.4
2014-Oct-18 15:33N 33°12' W 117°24'8 8.3
2014-Oct-18 14:33N 33°14' W 117°34'2 1.8
2014-Oct-18 13:33N 33°14' W 117°32'4 4.3
2014-Oct-18 12:33N 33°12' W 117°27'2 2.3
2014-Oct-18 11:33N 33°13' W 117°24'6 5.9
2014-Oct-18 10:33N 33°15' W 117°31'4715.8
2014-Oct-18 07:33N 33°46' W 118°13'0 0.0
2014-Oct-17 19:10N 33°46' W 118°13'0 0.8
2014-Oct-17 18:33N 33°46' W 118°13'0 0.5
2014-Oct-17 17:33N 33°46' W 118°13'0 0.0
2014-Oct-17 16:33N 33°46' W 118°13'0 0.0
2014-Oct-17 15:33N 33°46' W 118°13'  

Dump ship's entire track history